Terminal Aerodrome Forecast
Issued by NWS Greer, SC

Home | Current Version | Previous Version | Text Only | Print | Product List | Glossary On
Versions: 1 2 3 4 5 6 7 8 9 10 11 12 13 14 15 16 17 18 19 20 21 22 23 24 25 26 27 28 29 30 31 32 33 34 35 36 37 38 39 40 41 42 43 44 45 46 47 48
000
FTUS42 KGSP 141731 CCA
TAFCLT
TAF COR
KCLT 141731Z 1418/1518 08006KT P6SM OVC070
     FM142000 11006KT P6SM BKN070 PROB30 1504/1510 4SM -SN OVC040
     FM151000 06006KT P6SM OVC045 PROB30 1510/1513 4SM -PL OVC025
     FM151300 05006KT 6SM -FZRA OVC020=

USA.gov is the U.S. government's official web portal to all federal, state and local government web resources and services.